createdAt,value
2018-02-22T00:00:15.827Z,4.44
2018-02-22T00:02:44.499Z,4.38
2018-02-22T00:05:13.445Z,4.37
2018-02-22T00:07:47.073Z,4.39
2018-02-22T00:10:16.171Z,4.42
2018-02-22T00:12:45.288Z,4.39
2018-02-22T00:15:14.265Z,4.49
2018-02-22T00:17:43.274Z,4.43
2018-02-22T00:20:13.948Z,4.41
2018-02-22T00:22:43.799Z,4.47
2018-02-22T00:25:13.815Z,4.62
2018-02-22T00:27:42.910Z,4.62
2018-02-22T00:30:11.894Z,4.64
2018-02-22T00:32:41.314Z,4.57
2018-02-22T00:35:10.510Z,4.62
2018-02-22T00:37:41.919Z,4.65
2018-02-22T00:40:10.894Z,4.76
2018-02-22T00:42:39.945Z,4.71
2018-02-22T00:45:12.626Z,4.68
2018-02-22T00:47:41.722Z,4.61
2018-02-22T00:50:11.977Z,4.73
2018-02-22T00:52:41.033Z,4.75
2018-02-22T00:55:10.028Z,4.75
2018-02-22T00:57:39.027Z,4.80
2018-02-22T01:00:09.857Z,4.83
2018-02-22T01:02:39.706Z,4.83
2018-02-22T01:05:08.711Z,4.82
2018-02-22T01:07:38.884Z,4.83
2018-02-22T01:10:08.192Z,4.76
2018-02-22T01:12:37.181Z,4.69
2018-02-22T01:15:07.083Z,4.69
2018-02-22T01:17:36.086Z,4.73
2018-02-22T01:20:05.107Z,4.74
2018-02-22T01:22:36.156Z,4.69
2018-02-22T01:25:05.062Z,4.63
2018-02-22T01:27:34.009Z,4.56
2018-02-22T01:30:03.110Z,4.62
2018-02-22T01:32:32.205Z,4.67
2018-02-22T01:35:01.196Z,4.65
2018-02-22T01:37:31.163Z,4.52
2018-02-22T01:40:00.155Z,4.57
2018-02-22T01:42:29.921Z,4.64
2018-02-22T01:44:58.906Z,4.59
2018-02-22T01:47:27.903Z,4.51
2018-02-22T01:49:57.900Z,4.57
2018-02-22T01:52:28.554Z,4.51
2018-02-22T01:54:57.651Z,4.52
2018-02-22T01:57:26.747Z,4.56
2018-02-22T01:59:56.770Z,4.52
2018-02-22T02:02:25.858Z,4.55
2018-02-22T02:04:54.856Z,4.51
2018-02-22T02:07:25.074Z,4.52
2018-02-22T02:09:54.170Z,4.55
2018-02-22T02:12:24.082Z,4.53
2018-02-22T02:14:55.644Z,4.49
2018-02-22T02:17:24.606Z,4.46
2018-02-22T02:19:53.733Z,4.48
2018-02-22T02:22:23.692Z,4.38
2018-02-22T02:24:53.495Z,4.36
2018-02-22T02:27:22.451Z,4.32
2018-02-22T02:29:51.383Z,4.27
2018-02-22T02:32:20.337Z,4.30
2018-02-22T02:34:49.339Z,4.25
2018-02-22T02:37:18.945Z,4.27
2018-02-22T02:39:48.445Z,4.31
2018-02-22T02:42:17.365Z,4.25
2018-02-22T02:44:46.461Z,4.32
2018-02-22T02:47:15.253Z,4.39
2018-02-22T02:49:44.316Z,4.29
2018-02-22T02:52:14.748Z,4.34
2018-02-22T02:54:44.096Z,4.38
2018-02-22T02:57:14.053Z,4.48
2018-02-22T02:59:43.985Z,4.46
2018-02-22T03:02:13.719Z,4.52
2018-02-22T03:04:42.676Z,4.56
2018-02-22T03:07:12.631Z,4.44
2018-02-22T03:09:41.593Z,4.50
2018-02-22T03:12:10.995Z,4.36
2018-02-22T03:14:41.527Z,4.41
2018-02-22T03:17:10.653Z,4.36
2018-02-22T03:19:39.544Z,4.41
2018-02-22T03:22:08.608Z,4.38
2018-02-22T03:24:37.599Z,4.30
2018-02-22T03:27:06.490Z,4.32
2018-02-22T03:29:36.461Z,4.32
2018-02-22T03:32:05.304Z,4.36
2018-02-22T03:34:34.293Z,4.25
2018-02-22T03:37:03.390Z,4.24
2018-02-22T03:39:32.413Z,4.25
2018-02-22T03:42:01.305Z,4.19
2018-02-22T03:44:35.425Z,4.12
2018-02-22T03:47:04.384Z,4.05
2018-02-22T03:49:33.366Z,4.07
2018-02-22T03:52:03.189Z,4.15
2018-02-22T03:54:32.390Z,4.10
2018-02-22T03:57:01.520Z,4.01
2018-02-22T03:59:31.400Z,4.03
2018-02-22T04:02:00.483Z,4.01
2018-02-22T04:04:29.479Z,3.99
2018-02-22T04:07:00.125Z,4.02
2018-02-22T04:09:29.055Z,4.03
2018-02-22T04:11:58.111Z,4.01
2018-02-22T04:14:27.001Z,4.07
2018-02-22T04:16:55.883Z,4.02
2018-02-22T04:19:25.198Z,3.98
2018-02-22T04:21:54.285Z,4.00
2018-02-22T04:24:23.224Z,4.01
2018-02-22T04:26:52.304Z,4.08
2018-02-22T04:29:22.294Z,4.03
2018-02-22T04:31:52.102Z,4.02
2018-02-22T04:34:21.107Z,4.03
2018-02-22T04:36:50.806Z,4.02
2018-02-22T04:39:19.909Z,4.00
2018-02-22T04:41:49.002Z,3.96
2018-02-22T04:44:20.192Z,3.95
2018-02-22T04:46:49.864Z,3.94
2018-02-22T04:49:18.883Z,3.87
2018-02-22T04:51:47.944Z,3.90
2018-02-22T04:54:16.837Z,3.91
2018-02-22T04:56:46.074Z,3.93
2018-02-22T04:59:17.800Z,3.96
2018-02-22T05:01:49.186Z,3.93
2018-02-22T05:04:19.059Z,3.89
2018-02-22T05:06:48.054Z,3.81
2018-02-22T05:09:17.095Z,3.83
2018-02-22T05:11:46.971Z,3.85
2018-02-22T05:14:16.058Z,3.89
2018-02-22T05:16:45.261Z,3.85
2018-02-22T05:19:15.826Z,3.90
2018-02-22T05:21:44.887Z,3.96
2018-02-22T05:24:14.730Z,3.97
2018-02-22T05:26:45.529Z,3.95
2018-02-22T05:29:14.601Z,3.93
2018-02-22T05:31:43.631Z,3.93
2018-02-22T05:34:14.321Z,3.92
2018-02-22T05:36:43.350Z,3.89
2018-02-22T05:39:12.312Z,3.93
2018-02-22T05:41:42.344Z,3.98
2018-02-22T05:44:11.356Z,4.06
2018-02-22T05:46:41.111Z,4.03
2018-02-22T05:49:14.250Z,4.10
2018-02-22T05:51:43.216Z,4.06
2018-02-22T05:54:12.240Z,3.99
2018-02-22T05:56:42.942Z,3.96
2018-02-22T05:59:11.992Z,3.99
2018-02-22T06:01:41.105Z,3.94
2018-02-22T06:04:11.084Z,3.92
2018-02-22T06:06:40.159Z,3.96
2018-02-22T06:09:09.177Z,4.02
2018-02-22T06:11:38.319Z,4.06
2018-02-22T06:14:07.369Z,4.03
2018-02-22T06:16:36.364Z,4.00
2018-02-22T06:19:05.356Z,4.00
2018-02-22T06:21:34.451Z,3.96
2018-02-22T06:24:03.551Z,4.05
2018-02-22T06:26:33.398Z,4.10
2018-02-22T06:29:02.455Z,4.24
2018-02-22T06:31:32.515Z,4.34
2018-02-22T06:34:01.570Z,4.31
2018-02-22T06:36:30.770Z,4.26
2018-02-22T06:38:59.661Z,4.18
2018-02-22T06:41:29.474Z,4.01
2018-02-22T06:43:58.674Z,4.03
2018-02-22T06:46:28.588Z,3.94
2018-02-22T06:48:59.265Z,3.97
2018-02-22T06:51:28.874Z,3.93
2018-02-22T06:53:57.958Z,3.87
2018-02-22T06:56:27.826Z,3.80
2018-02-22T06:58:56.940Z,3.69
2018-02-22T07:01:25.923Z,3.72
2018-02-22T07:03:57.542Z,3.67
2018-02-22T07:06:26.478Z,3.65
2018-02-22T07:08:55.577Z,3.73
2018-02-22T07:11:25.661Z,3.75
2018-02-22T07:13:54.608Z,3.71
2018-02-22T07:16:23.704Z,3.75
2018-02-22T07:18:52.884Z,3.70
2018-02-22T07:21:21.877Z,3.78
2018-02-22T07:23:50.847Z,3.73
2018-02-22T07:26:19.962Z,3.71
2018-02-22T07:28:48.987Z,3.68
2018-02-22T07:31:18.058Z,3.69
2018-02-22T07:33:47.261Z,3.70
2018-02-22T07:36:17.738Z,3.80
2018-02-22T07:38:48.946Z,3.88
2018-02-22T07:41:18.060Z,3.93
2018-02-22T07:43:47.160Z,4.02
2018-02-22T07:46:17.959Z,4.00
2018-02-22T07:48:46.945Z,4.10
2018-02-22T07:51:16.050Z,4.15
2018-02-22T07:53:46.223Z,4.22
2018-02-22T07:56:15.263Z,4.14
2018-02-22T07:58:44.156Z,4.13
2018-02-22T08:01:13.376Z,4.16
2018-02-22T08:03:42.334Z,4.09
2018-02-22T08:06:11.359Z,4.14
2018-02-22T08:08:42.065Z,4.14
2018-02-22T08:11:10.956Z,4.13
2018-02-22T08:13:40.560Z,4.19
2018-02-22T08:16:10.516Z,4.16
2018-02-22T08:18:40.189Z,4.24
2018-02-22T08:21:09.095Z,4.23
2018-02-22T08:23:38.922Z,4.27
2018-02-22T08:26:07.889Z,4.28
2018-02-22T08:28:37.084Z,4.27
2018-02-22T08:31:07.720Z,4.28
2018-02-22T08:33:37.585Z,4.34
2018-02-22T08:36:06.627Z,4.31
2018-02-22T08:38:36.111Z,4.38
2018-02-22T08:41:05.025Z,4.27
2018-02-22T08:43:35.005Z,4.19
2018-02-22T08:46:04.138Z,4.25
2018-02-22T08:48:34.064Z,4.30
2018-02-22T08:51:03.078Z,4.32
2018-02-22T08:53:33.076Z,4.33
2018-02-22T08:56:02.310Z,4.37
2018-02-22T08:58:31.404Z,4.34
2018-02-22T09:01:00.493Z,4.41
2018-02-22T09:03:30.358Z,4.47
2018-02-22T09:06:00.428Z,4.40
2018-02-22T09:08:30.273Z,4.49
2018-02-22T09:11:01.863Z,4.51
2018-02-22T09:13:32.528Z,4.57
2018-02-22T09:16:02.000Z,4.57
2018-02-22T09:18:31.116Z,4.56
2018-02-22T09:21:01.335Z,4.51
2018-02-22T09:23:30.214Z,4.49
2018-02-22T09:25:59.203Z,4.56
2018-02-22T09:28:28.195Z,4.61
2018-02-22T09:30:58.139Z,4.60
2018-02-22T09:33:27.974Z,4.54
2018-02-22T09:35:57.067Z,4.57
2018-02-22T09:38:26.121Z,4.59
2018-02-22T09:40:56.038Z,4.64
2018-02-22T09:43:24.992Z,4.58
2018-02-22T09:45:54.904Z,4.64
2018-02-22T09:48:23.911Z,4.70
2018-02-22T09:50:53.856Z,4.72
2018-02-22T09:53:22.850Z,4.78
2018-02-22T09:55:52.050Z,4.73
2018-02-22T09:58:21.970Z,4.80
2018-02-22T10:00:51.370Z,4.81
2018-02-22T10:03:21.280Z,4.73
2018-02-22T10:05:51.606Z,4.68
2018-02-22T10:08:20.517Z,4.66
2018-02-22T10:10:49.486Z,4.75
2018-02-22T10:13:18.893Z,4.74
2018-02-22T10:15:48.810Z,4.71
2018-02-22T10:18:18.826Z,4.70
2018-02-22T10:20:49.743Z,4.82
2018-02-22T10:23:19.686Z,4.74
2018-02-22T10:25:48.609Z,4.85
2018-02-22T10:28:17.674Z,4.83
2018-02-22T10:30:46.696Z,4.88
2018-02-22T10:33:15.653Z,4.94
2018-02-22T10:35:47.039Z,4.95
2018-02-22T10:38:15.999Z,5.00
2018-02-22T10:40:44.991Z,5.00
2018-02-22T10:43:15.957Z,5.04
2018-02-22T10:45:45.743Z,5.06
2018-02-22T10:48:14.695Z,5.04
2018-02-22T10:50:43.732Z,5.02
2018-02-22T10:53:12.811Z,5.05
2018-02-22T10:55:41.824Z,5.07
2018-02-22T10:58:11.119Z,5.02
2018-02-22T11:00:45.543Z,5.11
2018-02-22T11:03:15.398Z,5.05
2018-02-22T11:05:44.456Z,5.01
2018-02-22T11:08:13.490Z,5.08
2018-02-22T11:10:43.543Z,5.16
2018-02-22T11:13:12.576Z,5.12
2018-02-22T11:15:41.661Z,5.14
2018-02-22T11:18:12.600Z,5.08
2018-02-22T11:20:41.694Z,5.14
2018-02-22T11:23:11.549Z,5.23
2018-02-22T11:25:40.568Z,5.22
2018-02-22T11:28:10.472Z,5.27
2018-02-22T11:30:41.083Z,5.29
2018-02-22T11:33:10.937Z,5.18
2018-02-22T11:35:40.157Z,5.22
2018-02-22T11:38:09.243Z,5.20
2018-02-22T11:40:38.252Z,5.15
2018-02-22T11:43:07.288Z,5.14
2018-02-22T11:45:36.243Z,5.24
2018-02-22T11:48:06.363Z,5.31
2018-02-22T11:50:36.378Z,5.24
2018-02-22T11:53:05.371Z,5.24
2018-02-22T11:55:34.783Z,5.32
2018-02-22T11:58:04.010Z,5.30
2018-02-22T12:00:33.019Z,5.29
2018-02-22T12:03:02.827Z,5.37
2018-02-22T12:05:31.820Z,5.42
2018-02-22T12:08:02.218Z,5.46
2018-02-22T12:10:33.857Z,5.42
2018-02-22T12:13:02.835Z,5.36
2018-02-22T12:15:31.955Z,5.37
2018-02-22T12:18:01.659Z,5.38
2018-02-22T12:20:32.191Z,5.27
2018-02-22T12:23:01.899Z,5.28
2018-02-22T12:25:32.100Z,5.36
2018-02-22T12:28:01.127Z,5.26
2018-02-22T12:30:30.163Z,5.09
2018-02-22T12:32:59.759Z,5.09
2018-02-22T12:35:28.695Z,5.08
2018-02-22T12:37:57.806Z,5.02
2018-02-22T12:40:27.912Z,4.96
2018-02-22T12:42:57.034Z,4.96
2018-02-22T12:45:26.345Z,4.91
2018-02-22T12:47:55.423Z,5.01
2018-02-22T12:50:24.484Z,4.97
2018-02-22T12:52:54.344Z,4.92
2018-02-22T12:55:25.168Z,4.86
2018-02-22T12:57:54.163Z,4.85
2018-02-22T13:00:23.204Z,4.89
2018-02-22T13:02:54.096Z,4.82
2018-02-22T13:05:23.156Z,4.69
2018-02-22T13:07:52.346Z,4.76
2018-02-22T13:10:22.925Z,4.74
2018-02-22T13:12:52.059Z,4.71
2018-02-22T13:15:21.152Z,4.77
2018-02-22T13:17:50.622Z,4.81
2018-02-22T13:20:20.059Z,4.78
2018-02-22T13:22:49.232Z,4.79
2018-02-22T13:25:19.222Z,4.75
2018-02-22T13:27:48.398Z,4.76
2018-02-22T13:30:17.440Z,4.79
2018-02-22T13:32:58.362Z,4.70
2018-02-22T13:35:27.560Z,4.79
2018-02-22T13:38:17.394Z,4.84
2018-02-22T13:40:47.249Z,4.82
2018-02-22T13:43:16.603Z,4.72
2018-02-22T13:45:46.732Z,4.65
2018-02-22T13:48:16.647Z,4.78
2018-02-22T13:51:00.166Z,4.65
2018-02-22T13:53:29.416Z,4.64
2018-02-22T13:55:58.574Z,4.67
2018-02-22T13:58:28.410Z,4.69
2018-02-22T14:01:24.513Z,4.78
2018-02-22T14:03:55.908Z,4.71
2018-02-22T14:06:25.167Z,4.55
2018-02-22T14:08:54.783Z,4.56
2018-02-22T14:11:26.286Z,4.44
2018-02-22T14:13:55.532Z,4.37
2018-02-22T14:16:26.622Z,4.32
2018-02-22T14:18:57.414Z,4.31
2018-02-22T14:21:26.604Z,4.27
2018-02-22T14:23:55.801Z,4.20
2018-02-22T14:26:25.767Z,4.21
2018-02-22T14:28:54.845Z,4.15
2018-02-22T14:31:25.037Z,4.10
2018-02-22T14:33:55.117Z,4.05
2018-02-22T14:36:24.357Z,4.17
2018-02-22T14:38:54.156Z,4.08
2018-02-22T14:41:25.716Z,4.05
2018-02-22T14:43:55.652Z,4.02
2018-02-22T14:46:24.892Z,3.98
2018-02-22T14:48:53.931Z,4.02
2018-02-22T14:51:23.707Z,3.98
2018-02-22T14:53:53.752Z,4.00
2018-02-22T14:56:22.977Z,3.92
2018-02-22T14:58:52.117Z,4.02
2018-02-22T15:01:21.198Z,3.99
2018-02-22T15:03:50.522Z,3.95
2018-02-22T15:06:19.644Z,3.95
2018-02-22T15:08:48.718Z,3.99
2018-02-22T15:11:17.929Z,4.02
2018-02-22T15:13:47.288Z,3.96
2018-02-22T15:16:16.496Z,3.91
2018-02-22T15:18:48.029Z,3.89
2018-02-22T15:21:18.272Z,3.84
2018-02-22T15:23:47.369Z,3.89
2018-02-22T15:26:22.983Z,3.74
2018-02-22T15:28:52.214Z,3.77
2018-02-22T15:31:22.250Z,3.70
2018-02-22T15:33:51.738Z,3.66
2018-02-22T15:36:20.947Z,3.61
2018-02-22T15:38:51.003Z,3.59
2018-02-22T15:41:21.459Z,3.55
2018-02-22T15:43:51.877Z,3.45
2018-02-22T15:46:21.327Z,3.45
2018-02-22T15:48:52.283Z,3.46
2018-02-22T15:51:21.777Z,3.38
2018-02-22T15:53:50.961Z,3.45
2018-02-22T15:56:25.236Z,3.42
2018-02-22T15:58:55.363Z,3.35
2018-02-22T16:01:24.498Z,3.26
2018-02-22T16:03:53.617Z,3.23
2018-02-22T16:06:23.598Z,3.12
2018-02-22T16:08:52.910Z,3.11
2018-02-22T16:11:25.962Z,3.06
2018-02-22T16:13:55.190Z,3.01
2018-02-22T16:16:24.495Z,3.02
2018-02-22T16:18:55.136Z,2.97
2018-02-22T16:21:24.652Z,2.97
2018-02-22T16:23:54.903Z,2.93
2018-02-22T16:26:24.928Z,2.96
2018-02-22T16:28:55.071Z,2.95
2018-02-22T16:31:25.563Z,2.99
2018-02-22T16:33:56.729Z,2.99
2018-02-22T16:36:26.107Z,3.06
2018-02-22T16:38:56.031Z,3.01
2018-02-22T16:41:26.118Z,3.07
2018-02-22T16:43:55.426Z,2.96
2018-02-22T16:46:25.756Z,2.99
2018-02-22T16:48:55.853Z,3.02
2018-02-22T16:51:25.354Z,2.97
2018-02-22T16:53:54.629Z,2.96
2018-02-22T16:56:23.765Z,2.91
2018-02-22T16:58:53.794Z,2.88
2018-02-22T17:01:23.669Z,2.88
2018-02-22T17:03:53.104Z,2.71
2018-02-22T17:06:22.155Z,2.60
2018-02-22T17:08:53.306Z,2.52
2018-02-22T17:11:23.319Z,2.52
2018-02-22T17:13:52.571Z,2.50
2018-02-22T17:16:27.574Z,2.47
2018-02-22T17:18:56.445Z,2.39
2018-02-22T17:21:25.294Z,2.31
2018-02-22T17:23:55.818Z,2.36
2018-02-22T17:26:30.325Z,2.34
2018-02-22T17:29:09.061Z,2.37
2018-02-22T17:31:43.397Z,2.42
2018-02-22T17:34:12.427Z,2.50
2018-02-22T17:36:47.020Z,2.42
2018-02-22T17:42:25.064Z,2.42
2018-02-22T17:44:54.145Z,2.29
2018-02-22T17:47:23.229Z,2.33
2018-02-22T17:49:52.144Z,2.37
2018-02-22T17:52:24.645Z,2.36
2018-02-22T17:54:54.872Z,2.31
2018-02-22T17:57:23.943Z,2.31
2018-02-22T17:59:54.190Z,2.31
2018-02-22T18:02:23.729Z,2.29
2018-02-22T18:04:53.591Z,2.29
2018-02-22T18:07:22.998Z,2.24
2018-02-22T18:09:51.988Z,2.28
2018-02-22T18:12:20.907Z,2.26
2018-02-22T18:14:50.880Z,2.26
2018-02-22T18:17:20.678Z,2.25
2018-02-22T18:19:49.636Z,2.26
2018-02-22T18:22:18.766Z,2.24
2018-02-22T18:24:47.713Z,2.26
2018-02-22T18:27:17.536Z,2.24
2018-02-22T18:29:46.512Z,2.19
2018-02-22T18:32:15.644Z,2.15
2018-02-22T18:34:45.624Z,2.13
2018-02-22T18:37:20.205Z,2.18
2018-02-22T18:39:49.211Z,2.21
2018-02-22T18:42:21.096Z,2.24
2018-02-22T18:44:55.614Z,2.20
2018-02-22T18:47:24.613Z,2.17
2018-02-22T18:49:53.551Z,2.18
2018-02-22T18:52:22.503Z,2.20
2018-02-22T18:54:51.456Z,2.22
2018-02-22T18:57:20.391Z,2.17
2018-02-22T18:59:51.007Z,2.15
2018-02-22T19:02:20.000Z,2.21
2018-02-22T19:04:48.931Z,2.15
2018-02-22T19:07:17.974Z,2.15
2018-02-22T19:09:46.879Z,2.21
2018-02-22T19:12:15.833Z,2.25
2018-02-22T19:14:47.363Z,2.18
2018-02-22T19:17:16.316Z,2.18
2018-02-22T19:19:45.242Z,2.18
2018-02-22T19:22:15.129Z,2.21
2018-02-22T19:24:44.026Z,2.23
2018-02-22T19:27:12.887Z,2.24
2018-02-22T19:29:41.824Z,2.22
2018-02-22T19:32:11.888Z,2.23
2018-02-22T19:34:40.890Z,2.25
2018-02-22T19:37:09.988Z,2.32
2018-02-22T19:39:39.179Z,2.34
2018-02-22T19:42:08.216Z,2.33
2018-02-22T19:44:38.885Z,2.34
2018-02-22T19:47:07.840Z,2.36
2018-02-22T19:49:36.789Z,2.33
2018-02-22T19:52:05.836Z,2.39
2018-02-22T19:54:34.833Z,2.41
2018-02-22T19:57:04.860Z,2.47
2018-02-22T19:59:34.711Z,2.52
2018-02-22T20:02:03.765Z,2.43
2018-02-22T20:04:32.723Z,2.45
2018-02-22T20:07:01.657Z,2.52
2018-02-22T20:09:30.559Z,2.53
2018-02-22T20:11:59.590Z,2.53
2018-02-22T20:14:28.732Z,2.46
2018-02-22T20:16:57.614Z,2.49
2018-02-22T20:19:26.488Z,2.43
2018-02-22T20:21:58.751Z,2.46
2018-02-22T20:24:27.698Z,2.51
2018-02-22T20:26:56.662Z,2.49
2018-02-22T20:29:26.569Z,2.51
2018-02-22T20:31:55.507Z,2.51
2018-02-22T20:34:24.377Z,2.54
2018-02-22T20:36:53.557Z,2.54
2018-02-22T20:39:22.624Z,2.53
2018-02-22T20:41:51.716Z,2.49
2018-02-22T20:44:21.671Z,2.51
2018-02-22T20:46:50.721Z,2.48
2018-02-22T20:49:19.662Z,2.58
2018-02-22T20:51:59.377Z,2.51
2018-02-22T20:54:28.446Z,2.57
2018-02-22T20:56:57.459Z,2.54
2018-02-22T20:59:29.143Z,2.61
2018-02-22T21:01:58.077Z,2.61
2018-02-22T21:04:27.099Z,2.56
2018-02-22T21:06:56.054Z,2.59
2018-02-22T21:09:24.965Z,2.57
2018-02-22T21:11:54.050Z,2.52
2018-02-22T21:14:25.681Z,2.55
2018-02-22T21:16:54.584Z,2.59
2018-02-22T21:19:23.562Z,2.54
2018-02-22T21:21:54.048Z,2.62
2018-02-22T21:24:22.894Z,2.57
2018-02-22T21:26:51.882Z,2.59
2018-02-22T21:29:21.606Z,2.60
2018-02-22T21:31:50.467Z,2.51
2018-02-22T21:34:19.363Z,2.54
2018-02-22T21:36:51.540Z,2.56
2018-02-22T21:39:20.449Z,2.56
2018-02-22T21:41:51.507Z,2.51
2018-02-22T21:44:21.291Z,2.48
2018-02-22T21:46:50.377Z,2.51
2018-02-22T21:49:19.271Z,2.52
2018-02-22T21:51:49.995Z,2.56
2018-02-22T21:54:18.861Z,2.52
2018-02-22T21:56:47.766Z,2.55
2018-02-22T21:59:20.271Z,2.57
2018-02-22T22:01:49.195Z,2.53
2018-02-22T22:04:18.171Z,2.59
2018-02-22T22:06:48.371Z,2.61
2018-02-22T22:09:17.245Z,2.55
2018-02-22T22:11:46.273Z,2.53
2018-02-22T22:14:15.266Z,2.55
2018-02-22T22:16:44.203Z,2.57
2018-02-22T22:19:13.465Z,2.55
2018-02-22T22:21:46.587Z,2.59
2018-02-22T22:24:15.748Z,2.61
2018-02-22T22:26:44.834Z,2.62
2018-02-22T22:29:13.818Z,2.49
2018-02-22T22:31:42.784Z,2.47
2018-02-22T22:34:11.747Z,2.53
2018-02-22T22:36:41.614Z,2.58
2018-02-22T22:39:10.498Z,2.55
2018-02-22T22:41:39.351Z,2.51
2018-02-22T22:44:13.591Z,2.49
2018-02-22T22:46:42.710Z,2.48
2018-02-22T22:49:11.613Z,2.43
2018-02-22T22:51:40.582Z,2.47
2018-02-22T22:54:09.601Z,2.42
2018-02-22T22:56:38.480Z,2.41
2018-02-22T22:59:08.538Z,2.43
2018-02-22T23:01:37.733Z,2.40
2018-02-22T23:04:06.839Z,2.46
2018-02-22T23:06:36.257Z,2.38
2018-02-22T23:09:06.463Z,2.34
2018-02-22T23:11:35.537Z,2.33
2018-02-22T23:14:09.680Z,2.37
2018-02-22T23:16:39.057Z,2.30
2018-02-22T23:19:11.715Z,2.35
2018-02-22T23:21:40.890Z,2.33
2018-02-22T23:24:09.794Z,2.30
2018-02-22T23:26:40.437Z,2.28
2018-02-22T23:29:09.322Z,2.28
2018-02-22T23:31:38.331Z,2.31
2018-02-22T23:34:07.361Z,2.28
2018-02-22T23:36:36.346Z,2.32
2018-02-22T23:39:05.494Z,2.31
2018-02-22T23:41:38.726Z,2.31
2018-02-22T23:44:07.838Z,2.23
2018-02-22T23:46:36.883Z,2.26
2018-02-22T23:49:05.834Z,2.24
2018-02-22T23:51:34.905Z,2.31
2018-02-22T23:54:03.883Z,2.24
2018-02-22T23:56:32.869Z,2.27
2018-02-22T23:59:01.731Z,2.25
